Time;durP1;ratioP1;P1;durP2;ratioP2;P2;SDS_P1;SDS_P2;PMS_P1;PMS_P2;Temp;Humidity;BMP_temperature;BMP_pressure;BME280_temperature;BME280_humidity;BME280_pressure;Samples;Min_cycle;Max_cycle;Signal;HPM_P1;HPM_P2
2023/07/06 00:01:25;;;;;;;6.22;4.18;;;;;;;20.51;100.00;97508.97;5130338;27;20031;-76
2023/07/06 00:03:51;;;;;;;5.78;4.10;;;;;;;20.52;100.00;97507.94;5130610;27;20027;-76
2023/07/06 00:06:17;;;;;;;6.40;4.32;;;;;;;20.53;100.00;97498.78;5130498;28;20098;-76
2023/07/06 00:08:43;;;;;;;7.35;4.38;;;;;;;20.47;100.00;97488.53;5130133;27;20027;-76
2023/07/06 00:11:09;;;;;;;4.63;3.90;;;;;;;20.49;100.00;97481.06;5113275;28;20026;-76
2023/07/06 00:13:37;;;;;;;5.20;3.90;;;;;;;20.57;100.00;97486.59;5130138;27;20031;-76
2023/07/06 00:16:02;;;;;;;5.53;3.95;;;;;;;20.64;100.00;97478.66;5130346;28;20015;-76
2023/07/06 00:18:28;;;;;;;5.85;4.22;;;;;;;20.53;100.00;97487.91;5131368;27;20541;-76
2023/07/06 00:20:54;;;;;;;5.20;4.20;;;;;;;20.58;100.00;97480.13;5130405;27;20058;-76
2023/07/06 00:23:21;;;;;;;5.70;4.40;;;;;;;20.61;100.00;97484.41;5131535;27;20046;-76
2023/07/06 00:25:47;;;;;;;9.07;4.57;;;;;;;20.60;100.00;97475.38;5131425;27;20023;-76
2023/07/06 00:28:12;;;;;;;8.32;4.45;;;;;;;20.64;100.00;97484.91;5116531;27;20032;-76
2023/07/06 00:33:12;;;;;;;6.38;4.25;;;;;;;20.74;100.00;97491.09;5115818;28;20032;-76
2023/07/06 00:35:41;;;;;;;12.25;4.75;;;;;;;20.83;100.00;97490.16;5109507;28;20032;-76
2023/07/06 00:38:14;;;;;;;9.85;4.82;;;;;;;20.88;100.00;97486.97;5123765;27;20398;-76
2023/07/06 00:40:44;;;;;;;11.05;4.88;;;;;;;20.92;100.00;97500.06;5096141;28;20475;-76
2023/07/06 00:43:11;;;;;;;10.10;5.10;;;;;;;20.93;100.00;97481.88;5130254;28;20061;-76
2023/07/06 00:45:38;;;;;;;9.45;4.68;;;;;;;20.93;100.00;97485.47;5131040;27;20387;-76
2023/07/06 00:48:05;;;;;;;9.80;4.63;;;;;;;20.97;100.00;97475.13;5130338;28;20035;-76
2023/07/06 00:50:32;;;;;;;7.05;4.80;;;;;;;20.95;100.00;97477.13;5132498;27;20023;-76
2023/07/06 00:53:03;;;;;;;11.23;5.15;;;;;;;20.98;100.00;97482.25;5088559;28;20038;-76
2023/07/06 00:55:32;;;;;;;10.35;4.93;;;;;;;20.92;100.00;97472.88;5113403;28;20038;-76
2023/07/06 00:58:03;;;;;;;9.77;4.80;;;;;;;20.90;100.00;97464.03;5113371;28;20368;-76
2023/07/06 01:00:29;;;;;;;6.95;4.63;;;;;;;20.93;100.00;97474.59;5113251;28;20110;-76
2023/07/06 01:02:58;;;;;;;5.18;4.25;;;;;;;20.86;100.00;97470.78;5096005;28;20471;-76
2023/07/06 01:05:25;;;;;;;5.95;4.45;;;;;;;20.79;100.00;97458.88;5111606;27;20019;-76
2023/07/06 01:07:51;;;;;;;6.43;4.40;;;;;;;20.81;100.00;97464.13;5133457;27;20037;-76
2023/07/06 01:10:18;;;;;;;15.88;5.13;;;;;;;20.77;100.00;97466.31;5116442;27;20023;-76
2023/07/06 01:12:43;;;;;;;12.65;4.82;;;;;;;20.71;100.00;97463.38;5116290;27;20094;-76
2023/07/06 01:15:09;;;;;;;8.65;4.85;;;;;;;20.64;100.00;97468.59;5134839;27;20027;-76
2023/07/06 01:17:57;;;;;;;9.52;4.80;;;;;;;20.68;100.00;97461.84;5133563;27;20027;-76
2023/07/06 01:21:02;;;;;;;9.18;4.70;;;;;;;20.72;100.00;97465.97;5116096;27;20430;-76
2023/07/06 01:23:54;;;;;;;8.27;5.10;;;;;;;20.72;100.00;97465.97;5133503;27;20054;-75
2023/07/06 01:27:07;;;;;;;8.40;5.45;;;;;;;20.64;100.00;97457.72;5127529;27;20016;-76
2023/07/06 01:30:10;;;;;;;7.13;4.70;;;;;;;20.64;100.00;97463.16;5112492;28;20490;-76
2023/07/06 01:32:42;;;;;;;7.47;6.18;;;;;;;20.62;100.00;97459.75;5112646;28;20059;-75
2023/07/06 01:35:36;;;;;;;9.05;4.45;;;;;;;20.63;100.00;97453.31;5095478;28;20115;-76
2023/07/06 01:38:02;;;;;;;6.70;4.90;;;;;;;20.58;100.00;97446.66;5112618;28;20045;-75
2023/07/06 01:40:27;;;;;;;10.05;4.90;;;;;;;20.57;100.00;97451.25;5127736;27;20027;-76
2023/07/06 01:42:53;;;;;;;8.18;4.97;;;;;;;20.56;100.00;97449.53;5132950;27;20114;-76
2023/07/06 01:45:22;;;;;;;9.80;5.03;;;;;;;20.58;100.00;97449.38;5133932;27;20554;-76
2023/07/06 01:47:55;;;;;;;7.68;5.22;;;;;;;20.57;100.00;97451.25;5114988;27;20114;-75
2023/07/06 01:50:26;;;;;;;7.53;4.95;;;;;;;20.49;100.00;97448.44;5126702;27;20031;-76
2023/07/06 01:52:55;;;;;;;6.95;5.75;;;;;;;20.47;100.00;97453.22;5105812;28;20100;-75
2023/07/06 01:55:26;;;;;;;9.77;6.30;;;;;;;20.48;100.00;97449.47;5113484;28;20023;-76
2023/07/06 01:58:12;;;;;;;13.25;6.97;;;;;;;20.45;100.00;97453.38;5113462;28;20045;-75
2023/07/06 02:00:41;;;;;;;8.48;6.32;;;;;;;20.43;100.00;97449.09;5110874;27;20108;-75
2023/07/06 02:03:07;;;;;;;9.27;6.13;;;;;;;20.42;100.00;97442.81;5131796;27;20122;-79
2023/07/06 02:05:33;;;;;;;8.20;6.30;;;;;;;20.42;100.00;97440.13;5132652;27;20102;-75
2023/07/06 02:07:59;;;;;;;10.15;7.22;;;;;;;20.42;100.00;97433.81;5132406;27;20038;-76
2023/07/06 02:10:25;;;;;;;9.48;6.80;;;;;;;20.38;100.00;97437.84;5132482;27;20435;-76
2023/07/06 02:12:51;;;;;;;10.75;7.22;;;;;;;20.36;100.00;97429.03;5133479;27;20118;-75
2023/07/06 02:15:20;;;;;;;13.45;7.50;;;;;;;20.35;100.00;97425.44;5114995;27;20034;-75
2023/07/06 02:17:46;;;;;;;11.18;7.38;;;;;;;20.32;100.00;97424.91;5132430;27;20478;-76
2023/07/06 02:20:15;;;;;;;13.50;7.50;;;;;;;20.30;100.00;97430.47;5114735;27;20026;-75
2023/07/06 02:22:44;;;;;;;11.90;7.20;;;;;;;20.28;100.00;97434.38;5132227;27;20038;-75
2023/07/06 02:25:09;;;;;;;12.70;7.82;;;;;;;20.24;100.00;97428.34;5114591;27;20119;-76
2023/07/06 02:27:36;;;;;;;11.40;7.20;;;;;;;20.23;100.00;97412.25;5132236;27;20114;-76
2023/07/06 02:30:02;;;;;;;12.30;7.05;;;;;;;20.24;100.00;97411.25;5133231;27;20035;-75
2023/07/06 02:32:28;;;;;;;15.90;7.75;;;;;;;20.14;100.00;97414.03;5104725;28;20050;-76
2023/07/06 02:34:54;;;;;;;12.15;7.10;;;;;;;20.13;100.00;97411.47;5094301;28;20478;-75
2023/07/06 02:37:20;;;;;;;9.52;6.88;;;;;;;20.12;100.00;97421.47;5130643;27;20015;-75
2023/07/06 02:39:45;;;;;;;11.23;6.32;;;;;;;20.10;100.00;97403.63;5131707;27;20033;-76
2023/07/06 02:42:14;;;;;;;8.93;6.60;;;;;;;20.04;100.00;97407.84;5131509;27;20110;-75
2023/07/06 02:44:40;;;;;;;12.95;7.00;;;;;;;19.94;100.00;97390.78;5131719;27;20554;-76
2023/07/06 02:47:07;;;;;;;13.20;6.63;;;;;;;19.87;100.00;97403.28;5114173;27;20414;-75
2023/07/06 02:49:32;;;;;;;15.93;6.47;;;;;;;19.87;100.00;97393.25;5131705;27;20030;-76
2023/07/06 02:52:00;;;;;;;14.30;6.70;;;;;;;19.87;100.00;97397.88;5131671;27;20015;-75
2023/07/06 02:54:26;;;;;;;16.92;6.95;;;;;;;19.90;100.00;97398.38;5114365;27;20050;-76
2023/07/06 02:56:52;;;;;;;14.20;6.80;;;;;;;19.84;100.00;97399.00;5114314;27;20027;-76
2023/07/06 02:59:18;;;;;;;16.17;7.03;;;;;;;19.86;100.00;97410.59;5131125;27;20015;-76
2023/07/06 03:01:45;;;;;;;16.55;6.85;;;;;;;19.90;100.00;97398.38;5131671;27;20375;-76
2023/07/06 03:04:11;;;;;;;11.73;6.55;;;;;;;19.87;100.00;97406.84;5114089;27;20462;-75
2023/07/06 03:06:37;;;;;;;15.25;6.97;;;;;;;19.86;100.00;97402.44;5129761;27;20118;-75
2023/07/06 03:09:03;;;;;;;10.15;7.30;;;;;;;19.88;100.00;97389.53;5131345;27;20054;-75
2023/07/06 03:11:31;;;;;;;11.40;7.30;;;;;;;19.83;100.00;97391.03;5131210;27;20027;-75
2023/07/06 03:13:56;;;;;;;12.82;7.63;;;;;;;19.81;100.00;97380.31;5130328;27;20390;-75
2023/07/06 03:16:22;;;;;;;14.43;7.30;;;;;;;19.88;100.00;97388.69;5113987;27;20050;-75
2023/07/06 03:18:47;;;;;;;12.57;7.05;;;;;;;19.85;100.00;97387.13;5132379;27;20528;-75
2023/07/06 03:21:14;;;;;;;15.88;8.80;;;;;;;19.93;100.00;97387.19;5132061;27;20077;-75
2023/07/06 03:23:39;;;;;;;18.17;8.30;;;;;;;19.98;100.00;97389.47;5132278;27;20497;-76
2023/07/06 03:26:06;;;;;;;11.10;7.20;;;;;;;20.00;100.00;97377.44;5130916;27;20027;-75
2023/07/06 03:28:31;;;;;;;14.88;7.40;;;;;;;20.01;100.00;97370.13;5131076;27;20403;-75
2023/07/06 03:30:58;;;;;;;9.45;6.80;;;;;;;19.98;100.00;97363.16;5132390;27;20042;-81
2023/07/06 03:33:24;;;;;;;10.10;7.45;;;;;;;19.99;100.00;97369.44;5121528;27;20022;-83
2023/07/06 03:35:58;;;;;;;10.77;6.85;;;;;;;20.02;100.00;97367.28;5106266;27;20015;-81
2023/07/06 03:38:27;;;;;;;15.50;7.30;;;;;;;20.05;100.00;97352.53;5103050;28;20028;-79
2023/07/06 03:40:53;;;;;;;8.65;6.43;;;;;;;20.07;100.00;97360.50;5093237;28;20124;-75
2023/07/06 03:43:19;;;;;;;22.27;9.95;;;;;;;20.11;100.00;97360.03;5125622;27;20578;-74
2023/07/06 03:45:48;;;;;;;12.98;8.25;;;;;;;20.24;100.00;97360.44;5110303;28;20073;-75
2023/07/06 03:48:15;;;;;;;11.30;7.50;;;;;;;20.32;100.00;97357.84;5127450;27;20070;-74
2023/07/06 03:50:41;;;;;;;14.63;7.55;;;;;;;20.36;100.00;97356.50;5103468;28;20057;-75
2023/07/06 03:53:07;;;;;;;14.93;7.70;;;;;;;20.36;100.00;97361.94;5126251;27;20019;-73
2023/07/06 03:55:33;;;;;;;10.50;7.22;;;;;;;20.37;100.00;97357.34;5127481;27;20442;-75
2023/07/06 03:58:00;;;;;;;26.08;9.35;;;;;;;20.41;100.00;97347.88;5121831;27;20028;-85
2023/07/06 04:00:28;;;;;;;20.35;8.90;;;;;;;20.56;100.00;97368.00;5092823;28;20035;-74
2023/07/06 04:02:55;;;;;;;20.70;9.38;;;;;;;20.47;100.00;97349.94;5117651;28;20023;-74
2023/07/06 04:05:31;;;;;;;33.63;13.32;;;;;;;20.49;100.00;97358.78;5109638;28;20434;-74
2023/07/06 04:07:58;;;;;;;14.00;7.90;;;;;;;20.53;100.00;97361.03;5127028;27;20033;-75
2023/07/06 04:10:24;;;;;;;14.60;7.80;;;;;;;20.64;100.00;97365.31;5130209;28;20033;-75
2023/07/06 04:12:49;;;;;;;28.88;8.45;;;;;;;20.71;100.00;97363.66;5130431;28;20483;-75
2023/07/06 04:15:17;;;;;;;10.63;7.55;;;;;;;20.82;100.00;97363.38;5120311;27;20039;-74
2023/07/06 04:17:50;;;;;;;17.52;10.38;;;;;;;20.96;100.00;97367.34;5124706;28;20058;-74
2023/07/06 04:20:24;;;;;;;21.75;9.98;;;;;;;21.11;100.00;97373.88;5130137;28;20029;-77
2023/07/06 04:22:54;;;;;;;18.92;7.95;;;;;;;21.18;100.00;97364.06;5112994;28;20113;-74
2023/07/06 04:25:22;;;;;;;12.75;7.80;;;;;;;21.15;100.00;97363.53;5115118;27;20501;-75
2023/07/06 04:27:48;;;;;;;29.25;12.13;;;;;;;21.36;100.00;97366.66;5134311;27;20463;-75
2023/07/06 04:30:15;;;;;;;17.13;7.97;;;;;;;21.55;100.00;97371.81;5134082;27;20122;-74
2023/07/06 04:32:42;;;;;;;13.40;7.22;;;;;;;21.69;100.00;97365.69;5116814;27;20030;-74
2023/07/06 04:35:10;;;;;;;15.27;6.95;;;;;;;21.76;100.00;97346.81;5134239;27;20023;-75
2023/07/06 04:37:35;;;;;;;21.35;9.55;;;;;;;21.79;100.00;97352.75;5133993;27;20038;-74
2023/07/06 04:40:05;;;;;;;10.35;6.78;;;;;;;21.96;100.00;97340.91;5116820;27;20478;-74
2023/07/06 04:42:31;;;;;;;10.75;7.35;;;;;;;21.98;100.00;97341.56;5124163;27;20031;-74
2023/07/06 04:44:56;;;;;;;14.15;7.55;;;;;;;22.17;100.00;97340.38;5129165;27;20050;-74
2023/07/06 04:47:23;;;;;;;14.05;6.70;;;;;;;22.36;100.00;97340.00;5133676;27;20030;-74
2023/07/06 04:49:50;;;;;;;21.30;8.50;;;;;;;22.45;100.00;97340.81;5133794;27;20436;-75
2023/07/06 04:52:16;;;;;;;17.60;7.50;;;;;;;22.56;100.00;97351.34;5133832;27;20030;-75
2023/07/06 04:54:41;;;;;;;10.63;6.93;;;;;;;22.70;100.00;97353.41;5134871;27;20056;-75
2023/07/06 04:57:07;;;;;;;8.77;6.60;;;;;;;22.72;100.00;97355.94;5135105;27;20054;-75
2023/07/06 04:59:33;;;;;;;13.38;6.95;;;;;;;22.81;100.00;97354.91;5133510;27;20023;-74
2023/07/06 05:01:59;;;;;;;9.93;6.32;;;;;;;22.76;100.00;97360.88;5133809;27;20474;-74
2023/07/06 05:04:25;;;;;;;8.40;6.30;;;;;;;22.67;100.00;97361.94;5134859;27;20031;-74
2023/07/06 05:06:52;;;;;;;9.93;6.10;;;;;;;22.75;100.00;97370.09;5133216;27;20031;-74
2023/07/06 05:09:17;;;;;;;14.98;6.10;;;;;;;23.44;100.00;97373.94;5133612;27;20469;-75
2023/07/06 05:11:43;;;;;;;8.48;6.30;;;;;;;23.74;100.00;97353.91;5133242;27;20030;-75
2023/07/06 05:14:08;;;;;;;11.25;6.53;;;;;;;23.69;100.00;97367.25;5134443;27;20054;-74
2023/07/06 05:16:34;;;;;;;11.52;6.43;;;;;;;23.75;100.00;97377.44;5133000;27;20031;-74
2023/07/06 05:18:59;;;;;;;16.83;8.38;;;;;;;23.79;100.00;97377.94;5134363;27;20105;-75
2023/07/06 05:21:25;;;;;;;18.45;7.95;;;;;;;23.85;100.00;97385.41;5133014;27;20038;-75
2023/07/06 05:23:50;;;;;;;12.95;6.95;;;;;;;23.99;100.00;97379.19;5134266;27;20027;-75
2023/07/06 05:26:17;;;;;;;11.30;6.50;;;;;;;24.28;100.00;97371.09;5115797;27;20486;-75
2023/07/06 05:28:42;;;;;;;14.50;6.40;;;;;;;24.68;100.00;97372.56;5134028;27;20031;-75
2023/07/06 05:31:08;;;;;;;10.40;6.22;;;;;;;24.66;100.00;97367.31;5133210;27;20375;-75
2023/07/06 05:33:33;;;;;;;43.78;28.88;;;;;;;24.55;100.00;97366.91;5132960;27;20118;-75
2023/07/06 05:35:59;;;;;;;14.13;8.55;;;;;;;24.60;100.00;97379.00;5133165;27;20015;-75
2023/07/06 05:38:25;;;;;;;14.20;6.85;;;;;;;24.22;100.00;97371.81;5132728;27;20124;-75
2023/07/06 05:40:51;;;;;;;12.50;6.60;;;;;;;24.04;100.00;97383.06;5133762;27;20080;-75
2023/07/06 05:43:19;;;;;;;14.13;7.93;;;;;;;24.12;100.00;97380.28;5115433;27;20126;-75
2023/07/06 05:45:46;;;;;;;52.13;34.67;;;;;;;24.22;100.00;97378.16;5132219;27;20047;-75
2023/07/06 05:48:12;;;;;;;30.33;14.57;;;;;;;24.16;100.00;97386.22;5132660;27;20123;-75
2023/07/06 05:50:38;;;;;;;12.07;6.63;;;;;;;24.30;100.00;97392.78;5133663;27;20478;-75
2023/07/06 05:53:06;;;;;;;16.92;6.93;;;;;;;24.51;100.00;97395.66;5132584;27;20394;-75
2023/07/06 05:55:31;;;;;;;13.75;7.78;;;;;;;24.91;100.00;97389.81;5115325;27;20026;-75
2023/07/06 05:57:57;;;;;;;11.93;7.00;;;;;;;25.40;100.00;97392.78;5133517;27;20079;-76
2023/07/06 06:00:23;;;;;;;14.32;6.88;;;;;;;25.90;100.00;97391.94;5115209;27;20122;-75
2023/07/06 06:02:48;;;;;;;12.80;5.72;;;;;;;26.14;100.00;97388.81;5132213;27;20060;-75
2023/07/06 06:05:15;;;;;;;12.05;7.45;;;;;;;26.97;100.00;97388.06;5132519;27;20023;-75
2023/07/06 06:07:43;;;;;;;119.20;81.82;;;;;;;28.19;100.00;97384.38;5133634;27;20054;-76
2023/07/06 06:10:10;;;;;;;14.40;6.60;;;;;;;28.79;100.00;97382.50;5106405;28;20032;-76
2023/07/06 06:12:36;;;;;;;21.23;6.95;;;;;;;28.94;100.00;97388.63;5112977;28;20050;-76
2023/07/06 06:15:03;;;;;;;14.65;9.10;;;;;;;28.36;100.00;97391.16;5131365;27;20027;-75
2023/07/06 06:17:28;;;;;;;9.35;6.30;;;;;;;27.72;100.00;97398.16;5132059;27;20048;-76
2023/07/06 06:19:54;;;;;;;17.33;7.55;;;;;;;27.05;100.00;97403.53;5133117;27;20099;-75
2023/07/06 06:22:19;;;;;;;12.77;7.05;;;;;;;26.80;100.00;97397.66;5132053;27;20419;-75
2023/07/06 06:24:45;;;;;;;11.55;6.85;;;;;;;26.66;100.00;97401.31;5114525;27;20031;-76
2023/07/06 06:27:14;;;;;;;38.00;22.05;;;;;;;26.57;100.00;97408.84;5131964;27;20470;-75
2023/07/06 06:29:42;;;;;;;18.17;7.22;;;;;;;26.49;100.00;97395.25;5114754;27;20122;-75
2023/07/06 06:32:12;;;;;;;7.38;5.90;;;;;;;25.93;100.00;97398.94;5131583;27;20037;-75
2023/07/06 06:34:38;;;;;;;13.73;7.38;;;;;;;26.25;100.00;97402.03;5131563;27;20087;-75
2023/07/06 06:37:04;;;;;;;31.33;9.88;;;;;;;27.00;100.00;97393.16;5132572;27;20019;-75
2023/07/06 06:39:34;;;;;;;20.73;7.93;;;;;;;27.56;100.00;97398.56;5114149;27;20344;-75
2023/07/06 06:42:00;;;;;;;11.90;6.55;;;;;;;27.22;100.00;97394.78;5131368;27;20087;-75
2023/07/06 06:44:28;;;;;;;12.68;6.43;;;;;;;27.41;100.00;97391.25;5131169;27;20046;-75
2023/07/06 06:46:56;;;;;;;9.50;6.10;;;;;;;27.65;100.00;97395.41;5131155;27;20046;-75
2023/07/06 06:49:22;;;;;;;8.35;6.20;;;;;;;27.61;100.00;97396.88;5131340;27;20027;-75
2023/07/06 06:51:48;;;;;;;7.97;6.00;;;;;;;27.84;100.00;97393.78;5131134;27;20071;-75
2023/07/06 06:54:14;;;;;;;11.27;5.70;;;;;;;28.20;100.00;97391.56;5132348;27;20027;-75
2023/07/06 06:56:39;;;;;;;11.40;5.68;;;;;;;28.40;100.00;97388.81;5113895;27;20382;-74
2023/07/06 06:59:05;;;;;;;11.15;6.00;;;;;;;28.72;100.00;97385.28;5132154;27;20115;-75
2023/07/06 07:01:31;;;;;;;10.88;5.18;;;;;;;28.41;100.00;97383.13;5131000;27;20030;-75
2023/07/06 07:03:59;;;;;;;9.48;4.80;;;;;;;28.02;100.00;97387.69;5130867;27;20023;-75
2023/07/06 07:06:25;;;;;;;21.75;5.45;;;;;;;27.87;100.00;97390.63;5114057;27;20125;-74
2023/07/06 07:08:51;;;;;;;6.40;5.00;;;;;;;27.50;100.00;97388.38;5130986;27;20023;-75
2023/07/06 07:11:21;;;;;;;9.60;5.60;;;;;;;28.18;100.00;97388.16;5131975;27;20578;-74
2023/07/06 07:13:47;;;;;;;9.27;7.15;;;;;;;28.33;100.00;97388.00;5130868;27;20467;-75
2023/07/06 07:16:14;;;;;;;22.05;14.68;;;;;;;28.65;100.00;97391.81;5130650;27;20023;-75
2023/07/06 07:18:40;;;;;;;31.15;20.25;;;;;;;28.55;100.00;97392.22;5113462;27;20031;-75
2023/07/06 07:21:06;;;;;;;8.75;5.60;;;;;;;29.08;100.00;97384.78;5130470;27;20086;-75
2023/07/06 07:23:43;;;;;;;16.83;5.40;;;;;;;29.80;100.00;97378.19;5130561;27;20229;-75
2023/07/06 07:26:21;;;;;;;24.15;17.27;;;;;;;29.90;100.00;97379.44;5130198;27;20034;-75
2023/07/06 07:28:48;;;;;;;7.53;5.05;;;;;;;30.12;100.00;97379.94;5130445;27;20550;-74
2023/07/06 07:31:17;;;;;;;9.48;4.38;;;;;;;29.58;100.00;97375.75;5130139;27;20031;-74
2023/07/06 07:33:44;;;;;;;6.22;4.70;;;;;;;29.53;100.00;97383.00;5104555;28;20034;-73
2023/07/06 07:36:17;;;;;;;10.57;7.00;;;;;;;29.52;100.00;97375.78;5128295;27;20119;-74
2023/07/06 07:38:44;;;;;;;10.25;6.45;;;;;;;29.59;100.00;97388.47;5130575;27;20038;-75
2023/07/06 07:41:11;;;;;;;8.20;5.20;;;;;;;29.35;100.00;97388.34;5113203;27;20027;-76
2023/07/06 07:43:41;;;;;;;18.38;4.97;;;;;;;28.98;100.00;97384.38;5125736;27;20031;-76
2023/07/06 07:46:09;;;;;;;5.50;4.35;;;;;;;28.20;100.00;97393.47;5119075;27;20115;-76
2023/07/06 07:48:38;;;;;;;7.28;5.30;;;;;;;28.32;100.00;97384.38;5130583;27;20405;-75
2023/07/06 07:51:07;;;;;;;5.40;4.72;;;;;;;27.94;100.00;97396.97;5113361;28;20030;-76
2023/07/06 07:53:35;;;;;;;5.35;4.55;;;;;;;28.04;100.00;97402.94;5131685;27;20033;-76
2023/07/06 07:56:01;;;;;;;7.57;5.20;;;;;;;28.30;100.00;97397.50;5129421;27;20366;-76
2023/07/06 07:58:27;;;;;;;8.65;5.22;;;;;;;28.45;100.00;97384.41;5127307;27;20023;-75
2023/07/06 08:00:57;;;;;;;5.95;4.75;;;;;;;27.75;100.00;97400.50;5126136;28;20095;-75
2023/07/06 08:03:23;;;;;;;7.72;5.28;;;;;;;28.04;100.00;97405.69;5130266;28;20035;-76
2023/07/06 08:05:57;;;;;;;10.27;5.45;;;;;;;28.46;100.00;97391.59;5130314;27;20410;-75
2023/07/06 08:08:23;;;;;;;15.40;4.93;;;;;;;28.86;100.00;97384.19;5130043;27;20030;-75
2023/07/06 08:10:50;;;;;;;4.45;4.03;;;;;;;29.54;100.00;97382.75;5130313;27;20023;-75
2023/07/06 08:13:17;;;;;;;8.00;4.68;;;;;;;31.26;97.38;97369.44;5129778;28;20438;-75
2023/07/06 08:15:44;;;;;;;10.40;4.45;;;;;;;32.51;85.51;97365.00;5130221;27;20110;-76
2023/07/06 08:18:10;;;;;;;5.50;4.47;;;;;;;33.94;76.59;97357.84;5129807;27;20479;-76
2023/07/06 08:20:37;;;;;;;5.43;4.10;;;;;;;36.06;62.00;97357.66;5109185;28;20026;-76
2023/07/06 08:23:06;;;;;;;6.38;4.00;;;;;;;37.45;55.67;97347.22;5109612;28;20471;-74
2023/07/06 08:25:44;;;;;;;7.32;4.72;;;;;;;37.20;53.11;97341.44;5110499;28;20039;-75
2023/07/06 08:28:12;;;;;;;6.00;4.60;;;;;;;37.01;52.38;97334.66;5110636;28;20023;-75
2023/07/06 08:30:41;;;;;;;15.98;5.13;;;;;;;37.34;51.90;97343.50;5122902;27;20023;-74
2023/07/06 08:33:09;;;;;;;12.10;6.00;;;;;;;37.35;50.98;97333.16;5129714;28;20062;-74
2023/07/06 08:35:39;;;;;;;7.53;4.40;;;;;;;37.71;48.76;97329.50;5130933;27;20027;-74
2023/07/06 08:38:05;;;;;;;11.93;4.73;;;;;;;37.13;50.89;97341.69;5129693;27;20424;-74
2023/07/06 08:40:31;;;;;;;6.32;4.85;;;;;;;37.38;49.12;97341.84;5129376;27;20165;-75
2023/07/06 08:42:57;;;;;;;4.28;3.88;;;;;;;37.17;49.90;97336.41;5131032;27;20027;-75
2023/07/06 08:45:25;;;;;;;8.80;4.40;;;;;;;36.19;53.79;97349.75;5129547;27;20562;-75
2023/07/06 08:47:51;;;;;;;8.50;4.35;;;;;;;37.16;51.01;97337.53;5107680;28;20414;-76
2023/07/06 08:50:28;;;;;;;12.70;7.97;;;;;;;37.47;51.56;97345.03;5108851;28;20380;-75
2023/07/06 08:52:53;;;;;;;5.45;3.92;;;;;;;35.76;52.82;97345.03;5107105;27;20110;-75
2023/07/06 08:55:19;;;;;;;5.10;4.32;;;;;;;35.52;56.18;97343.59;5129361;28;20179;-75
2023/07/06 08:57:45;;;;;;;7.55;4.40;;;;;;;35.42;57.90;97335.09;5129584;28;20390;-75
2023/07/06 09:00:25;;;;;;;11.80;4.13;;;;;;;36.56;51.97;97338.72;5129733;28;20034;-76
2023/07/06 09:03:05;;;;;;;6.75;4.05;;;;;;;37.52;48.63;97322.69;5129766;28;20445;-75
2023/07/06 09:05:31;;;;;;;10.45;4.10;;;;;;;38.06;46.53;97323.19;5129362;27;20042;-75
2023/07/06 09:07:57;;;;;;;7.32;4.20;;;;;;;37.86;45.76;97325.91;5129632;27;20049;-76
2023/07/06 09:10:26;;;;;;;13.65;4.68;;;;;;;37.87;45.96;97324.81;5112348;27;20474;-75
2023/07/06 09:13:11;;;;;;;5.18;4.22;;;;;;;38.11;45.00;97322.38;5132216;27;20051;-75
2023/07/06 09:15:37;;;;;;;9.75;4.45;;;;;;;37.36;47.07;97320.91;5133177;27;20035;-75
2023/07/06 09:18:03;;;;;;;4.68;3.90;;;;;;;36.49;51.02;97326.91;5133339;27;20103;-75
2023/07/06 09:20:29;;;;;;;8.48;4.53;;;;;;;36.02;51.66;97314.72;5134109;27;20031;-75
2023/07/06 09:22:55;;;;;;;14.75;10.80;;;;;;;36.55;51.59;97320.28;5133582;27;20478;-77
2023/07/06 09:25:26;;;;;;;10.88;4.68;;;;;;;37.64;49.12;97320.50;5133348;27;20027;-75
2023/07/06 09:27:55;;;;;;;18.95;8.68;;;;;;;37.64;46.74;97322.47;5133302;27;20522;-75
2023/07/06 09:30:33;;;;;;;6.95;4.20;;;;;;;37.46;47.90;97326.56;5132964;27;20011;-75
2023/07/06 09:33:24;;;;;;;4.88;4.38;;;;;;;38.38;44.77;97317.41;5115979;27;20058;-75
2023/07/06 09:35:54;;;;;;;4.55;3.90;;;;;;;37.93;44.75;97318.16;5132924;27;20098;-75
2023/07/06 09:38:20;;;;;;;7.50;3.42;;;;;;;39.59;41.15;97316.50;5132955;27;20154;-75
2023/07/06 09:40:46;;;;;;;6.15;3.83;;;;;;;39.64;40.99;97314.50;5128846;27;20440;-75
2023/07/06 09:43:37;;;;;;;7.05;4.28;;;;;;;40.18;39.63;97302.53;5128519;27;20462;-75
2023/07/06 09:46:03;;;;;;;4.63;3.88;;;;;;;39.79;40.32;97311.66;5132824;27;20043;-75
2023/07/06 09:48:31;;;;;;;8.65;3.85;;;;;;;40.51;40.20;97308.22;5132775;27;20411;-75
2023/07/06 09:51:19;;;;;;;6.43;4.03;;;;;;;40.51;39.13;97311.00;5134479;27;20022;-75
2023/07/06 09:53:55;;;;;;;5.25;3.58;;;;;;;39.51;40.90;97309.50;5115434;27;20038;-75
2023/07/06 09:56:20;;;;;;;5.05;3.70;;;;;;;40.02;40.94;97310.16;5115401;27;20045;-75
2023/07/06 09:58:48;;;;;;;5.40;3.75;;;;;;;41.11;37.90;97290.00;5132443;27;20027;-76
2023/07/06 10:01:32;;;;;;;7.90;3.90;;;;;;;40.88;39.30;97302.00;5132770;27;20068;-75
2023/07/06 10:04:01;;;;;;;13.38;4.18;;;;;;;39.06;42.10;97301.19;5104988;28;20038;-75
2023/07/06 10:06:26;;;;;;;7.28;3.88;;;;;;;39.64;41.61;97294.88;5094699;28;20032;-75
2023/07/06 10:09:15;;;;;;;18.42;5.10;;;;;;;40.99;40.07;97283.94;5113181;28;20111;-75
2023/07/06 10:12:33;;;;;;;8.43;4.00;;;;;;;40.86;39.23;97287.41;5113725;27;20042;-75
2023/07/06 10:15:00;;;;;;;11.05;5.05;;;;;;;41.53;38.41;97274.41;5095972;28;20526;-75
2023/07/06 10:17:38;;;;;;;8.88;4.00;;;;;;;41.85;36.80;97271.75;5128829;27;20026;-75
2023/07/06 10:20:17;;;;;;;9.15;3.75;;;;;;;41.12;38.06;97268.38;5132377;27;20019;-75
2023/07/06 10:23:04;;;;;;;13.13;6.22;;;;;;;42.56;36.03;97260.25;5120670;27;20407;-75
2023/07/06 10:25:34;;;;;;;17.63;4.90;;;;;;;41.83;36.99;97261.94;5112710;28;20028;-76
2023/07/06 10:28:13;;;;;;;9.80;6.95;;;;;;;43.13;35.28;97261.00;5131835;27;20022;-76
2023/07/06 10:30:44;;;;;;;6.90;3.83;;;;;;;42.73;36.07;97254.13;5133113;27;20027;-76
2023/07/06 10:33:33;;;;;;;5.93;4.22;;;;;;;40.09;38.50;97260.22;5115222;27;20015;-76
2023/07/06 10:35:59;;;;;;;4.00;3.60;;;;;;;41.09;37.73;97252.13;5121956;27;20514;-76
2023/07/06 10:38:25;;;;;;;3.53;3.22;;;;;;;42.34;35.77;97242.34;5132191;27;20030;-76
2023/07/06 10:40:52;;;;;;;6.93;3.63;;;;;;;43.84;33.92;97245.50;5111762;27;20027;-76
2023/07/06 10:43:20;;;;;;;19.25;4.28;;;;;;;42.24;35.04;97250.97;5125101;27;20029;-76
2023/07/06 10:45:56;;;;;;;8.73;3.95;;;;;;;40.71;37.76;97253.88;5114242;27;20524;-76
2023/07/06 10:48:24;;;;;;;10.88;4.38;;;;;;;41.78;36.41;97251.59;5131822;27;20187;-75
2023/07/06 10:51:17;;;;;;;8.32;4.03;;;;;;;42.64;35.88;97256.78;5132772;27;20096;-75
2023/07/06 10:53:48;;;;;;;5.47;3.72;;;;;;;42.24;36.02;97242.53;5131883;27;20482;-76
2023/07/06 10:56:20;;;;;;;6.70;4.20;;;;;;;41.48;36.71;97240.72;5131919;27;20079;-76
2023/07/06 10:59:00;;;;;;;6.93;4.10;;;;;;;40.85;37.71;97229.59;5131370;27;20031;-76
2023/07/06 11:01:37;;;;;;;4.05;3.63;;;;;;;40.83;36.94;97231.00;5131483;27;20073;-75
2023/07/06 11:04:49;;;;;;;6.20;3.45;;;;;;;41.29;37.44;97237.00;5111870;27;20053;-75
2023/07/06 11:07:34;;;;;;;;;;;;;;;39.84;39.74;97247.16;5114648;27;20031;-76
2023/07/06 11:10:12;;;;;;;5.53;3.75;;;;;;;39.05;40.27;97252.78;5131148;27;19919;-75
2023/07/06 11:13:04;;;;;;;5.63;4.00;;;;;;;39.31;39.47;97253.59;5132187;27;20130;-75
2023/07/06 11:15:53;;;;;;;8.75;4.50;;;;;;;39.39;40.38;97248.22;5131096;27;20030;-75
2023/07/06 11:18:21;;;;;;;10.98;3.75;;;;;;;37.03;43.53;97245.94;5101662;27;20042;-75
2023/07/06 11:20:54;;;;;;;5.45;3.78;;;;;;;36.37;45.19;97234.25;5130889;27;20030;-75
2023/07/06 11:23:37;;;;;;;6.13;3.90;;;;;;;34.70;53.49;97240.59;5131221;27;20088;-75
2023/07/06 11:26:13;;;;;;;7.38;4.90;;;;;;;33.99;58.88;97237.69;5130736;27;20015;-75
2023/07/06 11:28:40;;;;;;;5.43;4.32;;;;;;;33.27;63.63;97231.84;5131151;27;20031;-75
2023/07/06 11:31:34;;;;;;;6.88;4.55;;;;;;;32.63;68.08;97230.13;5130717;27;20031;-78
2023/07/06 11:34:20;;;;;;;5.72;4.20;;;;;;;31.99;74.17;97236.53;5129118;27;20035;-74
2023/07/06 11:37:05;;;;;;;12.98;4.68;;;;;;;31.95;76.62;97246.38;5120275;27;20035;-75
2023/07/06 11:39:41;;;;;;;6.03;4.20;;;;;;;32.02;74.33;97238.84;5113327;27;20186;-75